Time;durP1;ratioP1;P1;durP2;ratioP2;P2;SDS_P1;SDS_P2;PMS_P1;PMS_P2;Temp;Humidity;BMP_temperature;BMP_pressure;BME280_temperature;BME280_humidity;BME280_pressure;Samples;Min_cycle;Max_cycle;Signal;HPM_P1;HPM_P2
2021/05/31 00:02:07;;;;;;;5.85;4.20;;;;;;;12.26;55.42;99468.09;3579137;40;20081;-64
2021/05/31 00:04:35;;;;;;;4.90;4.22;;;;;;;12.29;55.39;99472.22;3578714;40;20083;-64
2021/05/31 00:07:04;;;;;;;4.88;4.00;;;;;;;12.38;55.34;99476.38;3578637;40;20060;-65
2021/05/31 00:09:35;;;;;;;4.82;4.30;;;;;;;12.39;55.21;99465.56;3579042;40;20085;-69
2021/05/31 00:12:03;;;;;;;5.75;4.47;;;;;;;12.40;55.17;99467.22;3579020;40;20053;-65
2021/05/31 00:14:30;;;;;;;6.80;4.32;;;;;;;12.45;55.03;99461.38;3578658;40;20049;-64
2021/05/31 00:16:58;;;;;;;5.22;4.45;;;;;;;12.39;55.20;99462.09;3578773;40;20318;-65
2021/05/31 00:19:25;;;;;;;6.30;5.07;;;;;;;12.26;55.42;99459.31;3579133;40;20385;-64
2021/05/31 00:21:53;;;;;;;9.82;4.60;;;;;;;12.08;55.72;99457.06;3578861;40;20049;-64
2021/05/31 00:24:20;;;;;;;7.35;4.53;;;;;;;11.87;56.83;99452.53;3579094;40;20330;-64
2021/05/31 00:26:49;;;;;;;7.05;4.18;;;;;;;11.76;56.91;99447.69;3579180;40;20385;-64
2021/05/31 00:29:17;;;;;;;5.95;4.35;;;;;;;11.71;56.96;99442.13;3578756;40;20077;-64
2021/05/31 00:31:44;;;;;;;4.72;4.15;;;;;;;11.78;57.03;99445.69;3578546;40;20056;-64
2021/05/31 00:34:11;;;;;;;6.57;4.47;;;;;;;11.93;56.53;99446.50;3578513;40;20077;-64
2021/05/31 00:36:39;;;;;;;7.30;4.63;;;;;;;11.97;56.61;99439.84;3578896;40;20088;-64
2021/05/31 00:39:06;;;;;;;6.65;4.57;;;;;;;11.98;56.21;99443.31;3578280;40;20085;-64
2021/05/31 00:41:33;;;;;;;5.78;4.43;;;;;;;12.02;56.47;99447.22;3578610;40;20045;-64
2021/05/31 00:44:02;;;;;;;6.82;4.60;;;;;;;12.03;56.26;99439.06;3578452;40;20045;-63
2021/05/31 00:46:29;;;;;;;6.03;4.50;;;;;;;12.04;56.02;99446.03;3580169;40;20402;-63
2021/05/31 00:48:57;;;;;;;5.82;4.30;;;;;;;12.08;56.09;99447.31;3579835;40;20397;-63
2021/05/31 00:51:26;;;;;;;5.53;4.55;;;;;;;12.15;55.79;99444.72;3581953;40;20076;-64
2021/05/31 00:53:53;;;;;;;5.35;4.57;;;;;;;12.17;55.58;99450.66;3583239;40;20049;-64
2021/05/31 00:56:20;;;;;;;4.88;4.30;;;;;;;12.12;55.93;99439.78;3583596;40;20371;-64
2021/05/31 00:58:47;;;;;;;6.63;4.50;;;;;;;11.97;56.37;99444.31;3581286;40;20097;-64
2021/05/31 01:01:16;;;;;;;5.18;4.40;;;;;;;11.69;57.36;99449.44;3580256;40;20053;-64
2021/05/31 01:03:43;;;;;;;5.05;4.55;;;;;;;11.62;57.69;99447.50;3580773;40;20045;-64
2021/05/31 01:06:12;;;;;;;6.07;5.30;;;;;;;11.52;57.75;99443.50;3583051;40;20434;-64
2021/05/31 01:08:46;;;;;;;9.25;4.45;;;;;;;11.31;58.51;99437.13;3582296;40;20041;-64
2021/05/31 01:11:19;;;;;;;6.88;4.50;;;;;;;11.32;58.49;99441.41;3582797;40;20045;-64
2021/05/31 01:13:56;;;;;;;6.03;5.07;;;;;;;11.35;58.72;99442.88;3582075;40;20040;-63
2021/05/31 01:16:28;;;;;;;5.25;4.68;;;;;;;11.29;58.83;99441.75;3582563;40;20088;-64
2021/05/31 01:18:59;;;;;;;8.27;4.50;;;;;;;11.30;59.00;99440.75;3582465;40;20049;-64
2021/05/31 01:21:43;;;;;;;5.78;4.40;;;;;;;11.19;59.36;99451.78;3581387;40;20111;-64
2021/05/31 01:24:17;;;;;;;6.03;4.80;;;;;;;11.11;59.44;99444.75;3582984;40;20395;-64
2021/05/31 01:26:50;;;;;;;6.03;4.22;;;;;;;11.08;59.58;99442.47;3583165;40;20084;-64
2021/05/31 01:29:19;;;;;;;7.55;4.43;;;;;;;11.07;59.80;99454.06;3582642;40;20061;-64
2021/05/31 01:31:50;;;;;;;5.13;4.55;;;;;;;11.02;59.77;99451.13;3583048;40;20021;-64
2021/05/31 01:34:21;;;;;;;5.70;4.93;;;;;;;10.95;59.99;99438.78;3582485;40;20059;-64
2021/05/31 01:36:53;;;;;;;7.60;5.03;;;;;;;10.79;60.22;99443.22;3581329;40;20033;-66
2021/05/31 01:39:24;;;;;;;5.45;4.95;;;;;;;10.78;60.18;99441.59;3582195;40;20053;-64
2021/05/31 01:41:52;;;;;;;9.07;5.10;;;;;;;10.78;60.09;99443.41;3581192;40;20057;-64
2021/05/31 01:44:21;;;;;;;5.82;4.95;;;;;;;10.77;60.38;99445.22;3581109;40;20059;-64
2021/05/31 01:46:50;;;;;;;5.60;4.88;;;;;;;10.73;60.05;99443.91;3581052;40;20052;-64
2021/05/31 01:49:17;;;;;;;5.30;4.78;;;;;;;10.70;60.30;99441.66;3583006;40;20105;-64
2021/05/31 01:51:46;;;;;;;8.93;4.45;;;;;;;10.71;60.78;99450.41;3585014;40;20040;-64
2021/05/31 01:54:14;;;;;;;7.13;5.15;;;;;;;10.86;60.71;99444.16;3583940;40;20073;-63
2021/05/31 01:56:46;;;;;;;6.63;5.20;;;;;;;10.94;60.27;99447.72;3584278;40;20029;-64
2021/05/31 01:59:15;;;;;;;7.10;4.68;;;;;;;10.90;60.27;99445.44;3583764;40;20065;-63
2021/05/31 02:01:43;;;;;;;7.90;4.60;;;;;;;10.79;60.75;99437.94;3582621;40;20076;-63
2021/05/31 02:04:11;;;;;;;4.90;4.40;;;;;;;10.74;60.81;99434.19;3581906;40;20080;-63
2021/05/31 02:06:38;;;;;;;5.57;4.93;;;;;;;10.62;60.91;99437.25;3583412;40;20049;-63
2021/05/31 02:09:05;;;;;;;5.78;4.13;;;;;;;10.61;61.20;99432.13;3583978;40;20073;-63
2021/05/31 02:11:40;;;;;;;6.20;4.93;;;;;;;10.51;61.47;99439.47;3583713;40;20326;-63
2021/05/31 02:14:12;;;;;;;5.70;4.57;;;;;;;10.49;61.53;99437.03;3583868;40;20391;-63
2021/05/31 02:16:52;;;;;;;7.20;4.63;;;;;;;10.53;61.67;99426.91;3579941;40;20065;-65
2021/05/31 02:19:22;;;;;;;4.78;4.28;;;;;;;10.49;61.56;99439.66;3579704;40;20061;-63
2021/05/31 02:21:51;;;;;;;6.72;4.38;;;;;;;10.49;61.80;99433.53;3579620;40;20077;-63
2021/05/31 02:24:19;;;;;;;7.68;4.70;;;;;;;10.56;61.75;99432.66;3579531;40;20032;-63
2021/05/31 02:26:49;;;;;;;5.05;4.18;;;;;;;10.54;61.49;99434.66;3579352;40;20037;-63
2021/05/31 02:29:16;;;;;;;5.90;4.15;;;;;;;10.54;61.41;99429.38;3579143;40;20068;-63
2021/05/31 02:31:44;;;;;;;14.25;5.32;;;;;;;10.50;61.34;99437.84;3579365;40;20052;-63
2021/05/31 02:34:12;;;;;;;7.60;4.75;;;;;;;10.46;61.44;99431.25;3579472;40;20088;-63
2021/05/31 02:36:40;;;;;;;8.27;5.15;;;;;;;10.44;61.54;99431.41;3579478;40;20465;-63
2021/05/31 02:39:07;;;;;;;5.10;4.60;;;;;;;10.47;61.49;99432.91;3579332;40;20055;-64
2021/05/31 02:41:34;;;;;;;6.22;5.53;;;;;;;10.37;61.17;99425.22;3579338;40;20056;-63
2021/05/31 02:44:01;;;;;;;6.20;5.00;;;;;;;10.20;61.91;99423.63;3579236;40;20115;-64
2021/05/31 02:46:28;;;;;;;6.63;4.80;;;;;;;10.07;62.22;99421.56;3579455;40;20044;-63
2021/05/31 02:48:57;;;;;;;5.10;4.53;;;;;;;9.90;62.45;99421.66;3579776;40;20115;-63
2021/05/31 02:51:25;;;;;;;6.22;5.50;;;;;;;9.77;62.77;99428.50;3578278;40;20112;-63
2021/05/31 02:53:52;;;;;;;6.95;5.43;;;;;;;9.71;63.20;99421.25;3579303;40;20097;-62
2021/05/31 02:56:19;;;;;;;5.78;5.18;;;;;;;9.69;63.54;99424.06;3579502;40;20085;-63
2021/05/31 02:58:46;;;;;;;7.25;4.85;;;;;;;9.73;63.39;99419.28;3578187;40;20053;-63
2021/05/31 03:01:15;;;;;;;7.03;5.65;;;;;;;9.70;63.62;99419.59;3579048;40;20111;-63
2021/05/31 03:03:42;;;;;;;6.53;5.30;;;;;;;9.57;63.91;99418.34;3579271;40;20036;-63
2021/05/31 03:06:11;;;;;;;6.25;5.43;;;;;;;9.59;63.91;99420.78;3579228;40;20104;-64
2021/05/31 03:08:38;;;;;;;8.13;5.38;;;;;;;9.55;64.00;99424.78;3577383;40;20061;-65
2021/05/31 03:11:06;;;;;;;6.00;5.40;;;;;;;9.57;64.03;99423.63;3579038;40;20430;-64
2021/05/31 03:13:33;;;;;;;7.70;5.38;;;;;;;9.54;63.94;99429.22;3579030;40;20060;-64
2021/05/31 03:16:00;;;;;;;6.20;5.35;;;;;;;9.54;64.14;99426.59;3578268;40;20052;-64
2021/05/31 03:18:28;;;;;;;7.03;5.30;;;;;;;9.52;64.15;99420.66;3577667;40;20154;-64
2021/05/31 03:20:56;;;;;;;6.03;5.53;;;;;;;9.56;63.98;99416.69;3578832;40;20049;-63
2021/05/31 03:23:24;;;;;;;7.55;5.38;;;;;;;9.48;64.28;99424.66;3579100;40;20052;-63
2021/05/31 03:25:52;;;;;;;6.93;6.03;;;;;;;9.24;64.54;99425.53;3579321;40;20052;-64
2021/05/31 03:28:20;;;;;;;10.13;5.53;;;;;;;9.27;64.85;99422.56;3579052;40;20045;-64
2021/05/31 03:30:47;;;;;;;8.32;5.43;;;;;;;9.38;64.57;99424.00;3579435;40;20059;-64
2021/05/31 03:33:14;;;;;;;10.45;6.15;;;;;;;9.38;64.62;99432.75;3577938;40;20055;-64
2021/05/31 03:35:41;;;;;;;7.13;5.53;;;;;;;9.31;64.82;99426.50;3579101;40;20061;-64
2021/05/31 03:38:08;;;;;;;6.85;5.95;;;;;;;9.26;64.59;99428.00;3578584;40;20045;-64
2021/05/31 03:40:37;;;;;;;8.05;5.97;;;;;;;9.21;64.81;99430.31;3578753;40;20049;-64
2021/05/31 03:43:04;;;;;;;8.43;5.63;;;;;;;9.15;64.80;99426.56;3579045;40;20115;-64
2021/05/31 03:45:31;;;;;;;8.40;6.40;;;;;;;9.12;64.89;99432.97;3578764;40;20045;-63
2021/05/31 03:47:59;;;;;;;9.45;6.20;;;;;;;9.12;64.96;99432.16;3578439;40;20049;-64
2021/05/31 03:50:26;;;;;;;8.50;5.53;;;;;;;9.17;64.70;99435.09;3579293;40;20053;-64
2021/05/31 03:52:53;;;;;;;11.27;6.43;;;;;;;9.18;64.43;99436.75;3579120;40;20049;-64
2021/05/31 03:55:20;;;;;;;6.93;5.78;;;;;;;9.12;64.26;99427.69;3578927;40;20056;-64
2021/05/31 03:57:49;;;;;;;7.70;5.50;;;;;;;9.04;64.45;99434.81;3578323;40;20516;-64
2021/05/31 04:00:17;;;;;;;6.55;5.10;;;;;;;8.90;64.65;99442.41;3578924;40;20082;-64
2021/05/31 04:02:45;;;;;;;6.68;5.88;;;;;;;8.84;65.04;99440.41;3577836;40;20041;-64
2021/05/31 04:05:15;;;;;;;8.32;5.28;;;;;;;8.84;65.23;99442.25;3578639;40;20067;-64
2021/05/31 04:13:20;;;;;;;7.57;5.55;;;;;;;9.11;64.23;99446.34;3578792;40;20048;-64
2021/05/31 04:15:47;;;;;;;6.68;5.93;;;;;;;9.09;63.88;99438.59;3578472;40;20414;-65
2021/05/31 04:18:14;;;;;;;6.68;5.60;;;;;;;9.04;63.90;99446.19;3578350;40;20434;-64
2021/05/31 04:20:42;;;;;;;10.95;7.38;;;;;;;9.08;64.23;99446.66;3577884;40;20037;-64
2021/05/31 04:23:09;;;;;;;7.97;5.95;;;;;;;9.15;64.03;99442.38;3579651;40;20060;-64
2021/05/31 04:25:36;;;;;;;9.25;6.30;;;;;;;9.27;63.77;99445.50;3582895;40;20101;-63
2021/05/31 04:28:04;;;;;;;7.80;5.72;;;;;;;9.31;63.40;99449.44;3578736;40;20057;-64
2021/05/31 04:30:33;;;;;;;6.50;5.07;;;;;;;9.34;63.25;99441.16;3578570;40;20326;-64
2021/05/31 04:33:00;;;;;;;12.55;8.48;;;;;;;9.40;63.44;99441.31;3578472;40;20150;-64
2021/05/31 04:35:27;;;;;;;6.80;5.72;;;;;;;9.52;63.10;99439.16;3578592;40;20045;-64
2021/05/31 04:37:56;;;;;;;8.90;6.72;;;;;;;9.63;62.83;99448.50;3578012;40;20049;-64
2021/05/31 04:40:24;;;;;;;9.20;6.38;;;;;;;9.78;62.65;99444.16;3578427;40;20361;-64
2021/05/31 04:42:51;;;;;;;8.43;6.68;;;;;;;9.87;62.22;99444.94;3578646;40;20395;-64
2021/05/31 04:45:18;;;;;;;8.63;5.80;;;;;;;9.99;61.89;99445.38;3578452;40;20421;-64
2021/05/31 04:47:47;;;;;;;8.82;5.95;;;;;;;10.10;61.75;99437.06;3578335;40;20429;-64
2021/05/31 04:50:15;;;;;;;10.02;5.18;;;;;;;10.30;61.33;99445.41;3578870;40;20033;-63
2021/05/31 04:52:42;;;;;;;10.48;5.85;;;;;;;10.48;60.63;99445.94;3577284;40;20044;-63
2021/05/31 04:55:15;;;;;;;9.13;5.55;;;;;;;10.68;60.38;99448.09;3578295;40;20049;-64
2021/05/31 04:57:43;;;;;;;8.38;6.55;;;;;;;10.83;59.91;99447.16;3577979;40;20074;-63
2021/05/31 05:00:13;;;;;;;11.55;7.05;;;;;;;10.93;59.45;99449.53;3578436;40;20037;-64
2021/05/31 05:02:40;;;;;;;11.85;6.45;;;;;;;11.00;59.14;99441.72;3578456;40;20089;-63
2021/05/31 05:05:10;;;;;;;6.53;5.45;;;;;;;11.06;59.05;99454.22;3577448;40;20478;-65
2021/05/31 05:07:44;;;;;;;8.18;6.20;;;;;;;11.07;58.80;99448.75;3578017;40;20048;-63
2021/05/31 05:10:14;;;;;;;9.27;6.07;;;;;;;11.13;58.80;99441.91;3577862;40;20071;-63
2021/05/31 05:12:42;;;;;;;9.73;5.57;;;;;;;11.23;58.52;99439.03;3578958;40;20053;-63
2021/05/31 05:15:11;;;;;;;8.25;5.80;;;;;;;11.32;58.14;99443.22;3578240;40;20064;-65
2021/05/31 05:17:39;;;;;;;8.05;6.00;;;;;;;11.41;58.35;99436.84;3579054;40;20381;-64
2021/05/31 05:20:09;;;;;;;5.97;5.07;;;;;;;11.51;58.11;99439.19;3579609;40;20057;-65
2021/05/31 05:22:37;;;;;;;9.77;6.45;;;;;;;11.64;57.58;99447.34;3580410;40;20116;-62
2021/05/31 05:25:07;;;;;;;7.25;6.22;;;;;;;11.74;57.32;99444.41;3578797;40;20047;-64
2021/05/31 05:27:35;;;;;;;13.18;6.82;;;;;;;11.84;56.92;99439.69;3578466;40;20056;-64
2021/05/31 05:30:04;;;;;;;11.25;7.95;;;;;;;11.96;56.47;99440.84;3577109;40;20052;-65
2021/05/31 05:32:32;;;;;;;10.95;8.98;;;;;;;12.06;56.20;99436.06;3578852;40;20044;-65
2021/05/31 05:35:07;;;;;;;9.30;6.57;;;;;;;12.19;55.62;99439.88;3579845;40;20045;-65
2021/05/31 05:37:42;;;;;;;7.35;5.18;;;;;;;12.22;55.37;99428.91;3579522;40;20057;-65
2021/05/31 05:40:37;;;;;;;6.53;5.63;;;;;;;12.35;55.16;99435.16;3580074;40;20045;-66
2021/05/31 05:43:16;;;;;;;6.82;6.07;;;;;;;12.54;54.74;99432.91;3579981;40;20045;-65
2021/05/31 05:45:52;;;;;;;11.32;6.50;;;;;;;12.73;54.19;99434.88;3579738;40;20036;-65
2021/05/31 05:48:19;;;;;;;7.22;6.13;;;;;;;12.84;53.89;99429.06;3579426;40;20308;-65
2021/05/31 05:50:46;;;;;;;9.10;7.25;;;;;;;13.01;53.13;99424.28;3579957;40;20326;-64
2021/05/31 05:53:15;;;;;;;5.75;4.10;;;;;;;13.06;52.23;99421.91;3579657;40;20118;-64
2021/05/31 05:55:42;;;;;;;4.88;3.70;;;;;;;13.10;51.80;99423.16;3579871;40;20045;-65
2021/05/31 05:58:10;;;;;;;5.38;3.78;;;;;;;13.22;51.80;99414.63;3579504;40;20040;-65
2021/05/31 06:00:37;;;;;;;4.78;3.85;;;;;;;13.40;50.90;99428.28;3579748;40;20049;-66
2021/05/31 06:03:05;;;;;;;5.55;3.63;;;;;;;13.52;49.79;99431.19;3580219;40;20118;-65
2021/05/31 06:05:33;;;;;;;5.53;3.67;;;;;;;13.61;49.72;99414.88;3579594;40;20341;-66
2021/05/31 06:08:00;;;;;;;3.88;3.42;;;;;;;13.74;49.48;99418.63;3579460;40;20052;-65
2021/05/31 06:10:28;;;;;;;4.32;2.95;;;;;;;13.75;48.71;99428.22;3579552;40;20396;-66
2021/05/31 06:12:56;;;;;;;6.55;3.10;;;;;;;13.86;48.66;99420.50;3579401;40;20045;-66
2021/05/31 06:15:23;;;;;;;25.85;19.30;;;;;;;13.99;47.81;99419.75;3580169;40;20052;-64
2021/05/31 06:17:50;;;;;;;8.25;5.45;;;;;;;14.04;48.04;99424.44;3579698;40;20083;-65
2021/05/31 06:20:17;;;;;;;3.55;2.67;;;;;;;14.15;47.86;99428.38;3580267;40;20057;-65
2021/05/31 06:22:45;;;;;;;14.32;3.15;;;;;;;14.22;47.95;99424.72;3579596;40;20469;-65
2021/05/31 06:25:12;;;;;;;4.60;3.10;;;;;;;14.35;47.21;99432.72;3579379;40;20052;-65
2021/05/31 06:27:45;;;;;;;3.95;2.88;;;;;;;14.44;46.78;99433.34;3579584;40;20065;-64
2021/05/31 06:30:14;;;;;;;5.32;2.83;;;;;;;14.51;47.00;99425.44;3579542;40;20138;-65
2021/05/31 06:32:42;;;;;;;3.97;2.50;;;;;;;14.62;46.06;99424.84;3579657;40;20049;-65
2021/05/31 06:35:10;;;;;;;6.10;2.47;;;;;;;14.73;46.08;99428.72;3579719;40;20067;-66
2021/05/31 06:37:38;;;;;;;3.35;2.83;;;;;;;14.80;46.44;99419.69;3580181;40;20413;-65
2021/05/31 06:40:08;;;;;;;2.63;2.42;;;;;;;15.00;45.46;99421.56;3581103;40;20064;-64
2021/05/31 06:42:36;;;;;;;3.53;2.58;;;;;;;15.16;44.25;99417.66;3581148;40;20322;-63
2021/05/31 06:45:10;;;;;;;4.13;2.50;;;;;;;15.23;43.91;99413.13;3580699;40;20065;-64
2021/05/31 06:47:38;;;;;;;6.22;3.10;;;;;;;15.33;43.61;99408.19;3578928;40;20373;-64
2021/05/31 06:50:07;;;;;;;6.32;3.38;;;;;;;15.50;42.72;99403.22;3579987;40;20052;-64
2021/05/31 06:52:35;;;;;;;8.50;4.63;;;;;;;15.68;42.03;99411.41;3578822;40;20114;-65
2021/05/31 06:55:04;;;;;;;4.80;3.50;;;;;;;15.83;41.13;99403.94;3579432;40;20049;-64
2021/05/31 06:57:31;;;;;;;4.50;3.55;;;;;;;15.99;41.11;99405.31;3579562;40;20029;-64
2021/05/31 06:59:58;;;;;;;7.38;5.75;;;;;;;16.09;40.62;99410.19;3579539;40;20049;-64
2021/05/31 07:02:27;;;;;;;5.13;3.30;;;;;;;16.22;39.65;99409.28;3579326;40;20056;-65
2021/05/31 07:04:54;;;;;;;3.85;2.90;;;;;;;16.35;38.61;99410.03;3579507;40;20085;-63
2021/05/31 07:07:22;;;;;;;3.90;2.55;;;;;;;16.39;38.38;99402.41;3578948;40;20391;-65
2021/05/31 07:09:49;;;;;;;4.72;2.63;;;;;;;16.50;36.96;99403.56;3579026;40;20164;-65
2021/05/31 07:12:17;;;;;;;3.13;2.47;;;;;;;16.50;36.88;99403.56;3579153;40;20434;-65
2021/05/31 07:14:45;;;;;;;3.25;2.45;;;;;;;16.58;36.56;99404.13;3579480;40;20056;-65
2021/05/31 07:17:13;;;;;;;4.70;3.00;;;;;;;16.58;35.97;99401.47;3578850;40;20064;-65
2021/05/31 07:19:44;;;;;;;4.38;2.40;;;;;;;16.67;36.32;99404.66;3579441;40;20578;-66
2021/05/31 07:22:14;;;;;;;3.60;2.65;;;;;;;16.78;36.03;99397.84;3579810;40;20080;-65
2021/05/31 07:24:41;;;;;;;3.20;2.30;;;;;;;16.93;35.97;99400.16;3579274;40;20087;-65
2021/05/31 07:27:09;;;;;;;2.92;2.28;;;;;;;17.00;34.88;99404.41;3580164;40;20749;-65
2021/05/31 07:29:37;;;;;;;4.85;2.55;;;;;;;17.06;34.60;99397.38;3580206;40;20049;-65
2021/05/31 07:32:05;;;;;;;4.72;2.67;;;;;;;17.08;34.79;99397.97;3580219;40;20357;-65
2021/05/31 07:34:33;;;;;;;3.78;2.42;;;;;;;17.18;34.44;99395.59;3580435;40;20045;-65
2021/05/31 07:37:02;;;;;;;4.25;2.53;;;;;;;17.29;34.35;99396.75;3579988;40;20053;-66
2021/05/31 07:39:29;;;;;;;4.78;2.72;;;;;;;17.29;33.88;99392.22;3581819;40;20045;-65
2021/05/31 07:41:57;;;;;;;2.80;2.28;;;;;;;17.35;33.92;99385.19;3581674;40;20367;-66
2021/05/31 07:44:24;;;;;;;5.28;2.65;;;;;;;17.46;33.58;99389.75;3580609;40;20414;-66
2021/05/31 07:46:51;;;;;;;6.53;2.40;;;;;;;17.54;33.74;99385.97;3579984;40;20534;-66
2021/05/31 07:49:19;;;;;;;3.47;2.45;;;;;;;17.65;33.71;99389.78;3579953;40;20033;-64
2021/05/31 07:51:47;;;;;;;3.42;2.95;;;;;;;17.77;33.23;99375.44;3580037;40;20065;-65
2021/05/31 07:54:16;;;;;;;8.38;5.63;;;;;;;17.83;32.68;99385.22;3579229;40;20075;-64
2021/05/31 07:56:43;;;;;;;5.45;3.50;;;;;;;17.91;32.61;99391.31;3579201;40;20059;-65
2021/05/31 07:59:10;;;;;;;3.78;3.03;;;;;;;17.83;32.20;99393.25;3579037;40;20041;-65
2021/05/31 08:01:38;;;;;;;4.30;3.13;;;;;;;17.89;32.21;99394.22;3579455;40;20076;-65
2021/05/31 08:04:06;;;;;;;5.53;2.47;;;;;;;17.85;32.06;99397.56;3579374;40;20025;-66
2021/05/31 08:06:34;;;;;;;6.45;2.67;;;;;;;17.85;32.37;99387.69;3579108;40;20053;-66
2021/05/31 08:09:02;;;;;;;5.03;2.47;;;;;;;17.94;32.19;99394.34;3578406;40;20139;-66
2021/05/31 08:11:31;;;;;;;6.78;2.80;;;;;;;17.97;31.53;99385.06;3579636;40;20087;-66
2021/05/31 08:13:59;;;;;;;4.32;2.45;;;;;;;18.04;32.14;99383.09;3580097;40;20055;-66
2021/05/31 08:16:26;;;;;;;2.85;2.40;;;;;;;18.10;31.41;99376.06;3580909;40;20052;-64
2021/05/31 08:18:54;;;;;;;4.05;2.60;;;;;;;18.11;31.51;99370.47;3581468;40;20055;-66
2021/05/31 08:21:22;;;;;;;2.22;2.03;;;;;;;18.22;31.25;99384.94;3582987;40;20061;-67
2021/05/31 08:23:49;;;;;;;3.45;2.53;;;;;;;18.24;31.69;99382.81;3579050;40;20503;-64
2021/05/31 08:26:19;;;;;;;5.15;2.30;;;;;;;18.34;31.55;99376.94;3578163;40;20326;-65
2021/05/31 08:28:48;;;;;;;5.53;3.13;;;;;;;18.41;30.97;99373.13;3579095;40;20041;-65
2021/05/31 08:31:17;;;;;;;4.00;2.50;;;;;;;18.38;31.19;99373.56;3579394;40;20025;-66
2021/05/31 08:33:49;;;;;;;3.75;2.83;;;;;;;18.38;30.52;99373.56;3580646;40;20040;-64
2021/05/31 08:36:18;;;;;;;5.60;2.80;;;;;;;18.36;31.69;99370.28;3581680;40;20045;-65
2021/05/31 08:38:45;;;;;;;4.03;2.50;;;;;;;18.54;31.56;99374.78;3579968;40;20069;-65
2021/05/31 08:41:14;;;;;;;5.32;2.35;;;;;;;18.69;31.08;99375.13;3580088;40;20052;-66
2021/05/31 08:43:41;;;;;;;6.68;3.63;;;;;;;18.68;30.63;99368.13;3578736;40;20047;-65
2021/05/31 08:46:10;;;;;;;6.60;3.20;;;;;;;18.64;30.76;99361.63;3578391;40;20060;-65
2021/05/31 08:48:37;;;;;;;4.80;2.90;;;;;;;18.66;30.88;99375.59;3577606;40;20037;-65
2021/05/31 08:51:04;;;;;;;4.50;2.70;;;;;;;18.67;30.88;99373.75;3578777;40;20056;-66
2021/05/31 08:53:32;;;;;;;4.78;2.78;;;;;;;18.67;30.56;99366.50;3578563;40;20055;-65
2021/05/31 08:56:00;;;;;;;4.13;2.10;;;;;;;18.71;30.41;99357.00;3578691;40;20084;-64
2021/05/31 08:58:27;;;;;;;3.45;2.40;;;;;;;18.76;30.85;99353.63;3578094;40;20074;-64
2021/05/31 09:00:54;;;;;;;5.07;2.70;;;;;;;18.76;30.63;99356.31;3578549;40;20077;-66
2021/05/31 09:03:23;;;;;;;9.25;2.50;;;;;;;18.77;30.64;99348.03;3578834;40;20294;-64
2021/05/31 09:05:51;;;;;;;3.42;2.30;;;;;;;18.75;30.38;99358.16;3578215;40;20041;-65
2021/05/31 09:08:20;;;;;;;3.35;2.50;;;;;;;18.70;30.68;99352.69;3579658;40;20045;-64
2021/05/31 09:10:52;;;;;;;5.15;2.58;;;;;;;18.74;31.01;99345.84;3580161;40;20065;-65
2021/05/31 09:13:27;;;;;;;3.50;2.67;;;;;;;18.83;30.21;99362.38;3580294;40;20076;-66
2021/05/31 09:16:06;;;;;;;4.88;2.30;;;;;;;18.85;30.20;99349.53;3579937;40;20053;-63
2021/05/31 09:18:38;;;;;;;4.05;2.20;;;;;;;19.09;30.46;99360.25;3579567;40;20051;-64
2021/05/31 09:21:13;;;;;;;5.05;2.42;;;;;;;19.13;30.02;99350.69;3580350;40;20386;-64
2021/05/31 09:23:41;;;;;;;3.33;2.83;;;;;;;19.01;30.33;99345.34;3580095;40;20120;-64
2021/05/31 09:26:08;;;;;;;4.90;2.33;;;;;;;18.93;30.42;99345.69;3579954;40;20056;-66
2021/05/31 09:28:36;;;;;;;6.72;4.78;;;;;;;18.97;30.63;99342.31;3579552;40;20044;-65
2021/05/31 09:31:14;;;;;;;5.82;3.45;;;;;;;18.96;30.59;99339.88;3580149;40;20032;-65
2021/05/31 09:33:44;;;;;;;10.02;2.83;;;;;;;18.85;30.94;99336.16;3579859;40;20049;-63
2021/05/31 09:36:11;;;;;;;4.40;2.67;;;;;;;18.84;31.24;99333.72;3579885;40;20048;-64
2021/05/31 09:38:49;;;;;;;5.10;2.33;;;;;;;18.92;31.21;99330.69;3579391;40;20060;-64
2021/05/31 09:41:28;;;;;;;4.90;2.70;;;;;;;18.95;30.98;99335.59;3579758;40;20048;-65
2021/05/31 09:43:58;;;;;;;3.20;2.33;;;;;;;18.76;30.70;99335.69;3579945;40;20051;-65
2021/05/31 09:46:47;;;;;;;7.15;2.75;;;;;;;18.68;31.27;99330.66;3580029;40;20402;-65
2021/05/31 09:49:18;;;;;;;3.63;2.38;;;;;;;18.85;31.07;99338.00;3578000;40;20045;-64
2021/05/31 09:51:54;;;;;;;6.30;2.70;;;;;;;19.02;31.71;99334.41;3579815;40;20064;-65
2021/05/31 09:54:31;;;;;;;7.22;2.40;;;;;;;19.00;31.25;99338.38;3579691;40;20051;-65
2021/05/31 09:56:58;;;;;;;4.40;3.00;;;;;;;19.15;30.91;99330.66;3579478;40;20314;-66
2021/05/31 09:59:28;;;;;;;3.70;2.72;;;;;;;19.20;31.10;99327.28;3579599;40;20130;-65
2021/05/31 10:01:58;;;;;;;3.08;2.40;;;;;;;19.29;30.84;99328.53;3579637;40;20056;-64
2021/05/31 10:04:34;;;;;;;7.25;2.72;;;;;;;19.05;31.14;99320.53;3580109;40;20045;-65
2021/05/31 10:07:14;;;;;;;6.00;2.47;;;;;;;19.21;31.41;99324.34;3578594;40;20062;-64
2021/05/31 10:09:42;;;;;;;3.13;2.67;;;;;;;19.31;31.00;99323.78;3579774;40;20085;-64
2021/05/31 10:12:11;;;;;;;3.03;2.55;;;;;;;19.41;30.67;99325.81;3579951;40;20045;-64
2021/05/31 10:14:40;;;;;;;4.88;2.30;;;;;;;19.39;30.74;99314.50;3579637;40;20052;-64
2021/05/31 10:17:12;;;;;;;4.85;2.60;;;;;;;19.32;31.14;99308.50;3579251;40;20044;-63
2021/05/31 10:19:42;;;;;;;3.45;2.40;;;;;;;19.57;31.46;99308.19;3579419;40;20343;-64
2021/05/31 10:22:11;;;;;;;4.00;2.47;;;;;;;19.68;31.03;99299.31;3579696;40;20053;-65
2021/05/31 10:24:39;;;;;;;4.78;2.10;;;;;;;19.58;30.92;99309.81;3579388;40;20053;-65
2021/05/31 10:27:10;;;;;;;4.35;2.25;;;;;;;19.58;30.79;99299.88;3578337;40;20077;-64
2021/05/31 10:29:41;;;;;;;3.70;2.30;;;;;;;19.74;30.75;99290.28;3579372;40;20053;-65
2021/05/31 10:32:09;;;;;;;7.18;2.47;;;;;;;19.71;29.98;99310.34;3578270;40;20045;-65
2021/05/31 10:34:46;;;;;;;3.13;2.00;;;;;;;19.67;30.13;99311.06;3579453;40;20055;-65
2021/05/31 10:37:23;;;;;;;4.05;2.33;;;;;;;19.73;30.09;99313.63;3579556;40;20084;-65
2021/05/31 10:40:09;;;;;;;2.55;2.15;;;;;;;19.67;29.63;99298.47;3579537;40;20402;-65
2021/05/31 10:42:44;;;;;;;3.75;1.83;;;;;;;19.79;29.59;99304.59;3580125;40;20049;-65
2021/05/31 10:45:25;;;;;;;4.55;2.15;;;;;;;19.94;29.10;99314.81;3578799;40;20049;-64
2021/05/31 10:48:04;;;;;;;2.65;2.45;;;;;;;19.94;29.52;99298.72;3578134;40;20129;-64
2021/05/31 10:50:35;;;;;;;6.15;2.50;;;;;;;20.01;29.25;99298.56;3579467;40;20049;-64
2021/05/31 10:53:02;;;;;;;6.13;2.50;;;;;;;19.93;29.42;99305.13;3579503;40;20040;-64
2021/05/31 10:55:30;;;;;;;2.88;2.47;;;;;;;19.79;28.96;99301.91;3579821;40;20564;-66
2021/05/31 10:57:58;;;;;;;2.67;2.20;;;;;;;19.76;29.17;99299.75;3579056;40;20056;-65
2021/05/31 11:00:29;;;;;;;5.13;2.38;;;;;;;19.63;29.50;99293.84;3579504;40;20056;-64
2021/05/31 11:03:08;;;;;;;4.05;2.55;;;;;;;20.04;29.04;99287.31;3579441;40;20049;-65
2021/05/31 11:05:37;;;;;;;3.30;2.38;;;;;;;20.18;29.08;99296.72;3579433;40;20089;-65
2021/05/31 11:08:07;;;;;;;5.13;2.60;;;;;;;20.24;29.10;99293.03;3578127;40;20341;-68
2021/05/31 11:10:36;;;;;;;4.90;3.05;;;;;;;20.30;28.80;99293.94;3579741;40;20061;-66
2021/05/31 11:13:11;;;;;;;4.40;2.78;;;;;;;20.33;29.38;99295.31;3579665;40;20413;-67
2021/05/31 11:15:38;;;;;;;6.35;3.30;;;;;;;20.28;29.25;99290.69;3578985;40;20053;-66
2021/05/31 11:18:06;;;;;;;5.93;3.00;;;;;;;20.34;29.68;99299.66;3579039;40;20040;-64
2021/05/31 11:20:34;;;;;;;6.53;2.47;;;;;;;20.45;29.32;99290.69;3578419;40;20071;-66
2021/05/31 11:23:06;;;;;;;3.65;2.45;;;;;;;20.40;29.21;99280.66;3578335;40;20053;-64
2021/05/31 11:25:33;;;;;;;6.85;3.00;;;;;;;20.36;29.15;99297.53;3580174;40;20059;-65
2021/05/31 11:28:03;;;;;;;2.92;2.38;;;;;;;20.29;29.21;99286.97;3581462;40;20053;-65
2021/05/31 11:30:33;;;;;;;2.42;1.92;;;;;;;20.40;29.10;99280.66;3581175;40;20033;-63
2021/05/31 11:33:03;;;;;;;3.08;2.10;;;;;;;20.51;28.88;99273.63;3578602;40;20317;-63
2021/05/31 11:35:32;;;;;;;3.35;2.20;;;;;;;20.56;28.80;99278.25;3579168;40;20056;-64
2021/05/31 11:38:06;;;;;;;2.30;1.98;;;;;;;20.73;28.42;99273.66;3578799;40;20392;-65
2021/05/31 11:40:36;;;;;;;8.45;2.38;;;;;;;20.85;28.06;99273.56;3578028;40;20069;-65
2021/05/31 11:43:05;;;;;;;3.85;2.38;;;;;;;20.77;27.91;99256.81;3578669;40;20055;-64
2021/05/31 11:45:37;;;;;;;2.92;2.00;;;;;;;20.54;27.84;99257.03;3579011;40;20053;-65
2021/05/31 11:48:07;;;;;;;5.68;4.35;;;;;;;20.73;26.53;99252.97;3578758;40;20060;-64
2021/05/31 11:50:35;;;;;;;3.83;2.90;;;;;;;20.78;25.90;99253.06;3579118;40;20056;-65